Rock Creek, Oregon
Current Conditions -  °F | °C
As of 2:53 AM on Tuesday 21 Oct 2014 (Local Time) from KHIO Reporting Station
Overcast Overcast  
Wind Chill: 55°   Ceiling: 4300
Heat Index: 55°   Visibility: 10mi
Dew Point: 52°   Wind: 9mph
Humidity: 89%   Direction: 180°S
Pressure: 29.88"   Gusts: NA
Location:  45.5526°N, 122.821°W
Report Text: KHIO 210953Z 18008KT 10SM SCT036 BKN043 OVC080 13/11 A2988 RMK AO2 RAB33E42 SLP119 P0000 T01280111
Loading
Personal Weather Stations






























Interactive Weather Map
Tropical Storm Tracking
New forecast layout! Learn more

10-Day Weather Forecast

Advertisements
Track Severe Weather on mobile